createdAt,value
2023-03-26T00:01:23.900Z,61.29
2023-03-26T00:03:55.298Z,61.33
2023-03-26T00:06:38.657Z,61.44
2023-03-26T00:09:09.952Z,61.46
2023-03-26T00:11:36.999Z,61.54
2023-03-26T00:14:03.965Z,61.80
2023-03-26T00:16:32.151Z,61.74
2023-03-26T00:19:00.117Z,61.81
2023-03-26T00:21:29.043Z,61.76
2023-03-26T00:24:08.084Z,61.92
2023-03-26T00:26:38.460Z,62.01
2023-03-26T00:29:06.911Z,62.10
2023-03-26T00:31:34.462Z,62.43
2023-03-26T00:34:03.889Z,62.63
2023-03-26T00:36:31.045Z,62.76
2023-03-26T00:38:57.948Z,62.83
2023-03-26T00:41:26.665Z,62.76
2023-03-26T00:43:56.755Z,62.74
2023-03-26T00:46:29.479Z,62.76
2023-03-26T00:48:59.890Z,61.90
2023-03-26T00:51:28.753Z,62.29
2023-03-26T00:53:57.128Z,62.26
2023-03-26T00:56:24.594Z,61.98
2023-03-26T00:58:51.434Z,62.00
2023-03-26T01:01:28.062Z,61.65
2023-03-26T01:04:08.410Z,61.72
2023-03-26T01:06:41.335Z,61.68
2023-03-26T01:09:18.807Z,61.70
2023-03-26T01:11:46.990Z,61.58
2023-03-26T01:14:20.130Z,61.37
2023-03-26T01:16:53.714Z,61.42
2023-03-26T01:19:34.086Z,61.37
2023-03-26T01:22:00.929Z,61.48
2023-03-26T01:24:27.745Z,61.66
2023-03-26T01:27:35.932Z,61.85
2023-03-26T01:30:10.539Z,62.05
2023-03-26T01:32:47.624Z,62.11
2023-03-26T01:35:33.367Z,62.15
2023-03-26T01:38:32.892Z,62.15
2023-03-26T01:41:09.742Z,62.38
2023-03-26T01:43:54.216Z,62.38
2023-03-26T01:46:24.155Z,62.45
2023-03-26T01:48:51.572Z,62.54
2023-03-26T01:51:30.683Z,62.51
2023-03-26T01:53:58.396Z,62.52
2023-03-26T01:56:35.584Z,62.66
2023-03-26T01:59:29.600Z,62.70
2023-03-26T02:02:02.096Z,62.66
2023-03-26T02:04:54.758Z,63.13
2023-03-26T02:07:34.594Z,62.95
2023-03-26T02:10:10.438Z,63.17
2023-03-26T02:12:37.907Z,63.32
2023-03-26T02:15:05.864Z,63.02
2023-03-26T02:17:33.216Z,63.28
2023-03-26T02:20:05.902Z,63.23
2023-03-26T02:22:32.771Z,63.18
2023-03-26T02:24:59.566Z,63.12
2023-03-26T02:27:27.068Z,63.08
2023-03-26T02:29:53.936Z,63.08
2023-03-26T02:32:20.682Z,62.92
2023-03-26T02:34:47.656Z,63.03
2023-03-26T02:37:14.458Z,63.14
2023-03-26T02:39:41.856Z,63.00
2023-03-26T02:42:08.604Z,62.86
2023-03-26T02:44:35.470Z,62.99
2023-03-26T02:47:02.229Z,63.15
2023-03-26T02:49:29.054Z,63.27
2023-03-26T02:51:56.363Z,63.26
2023-03-26T02:54:23.634Z,63.48
2023-03-26T02:56:50.847Z,63.78
2023-03-26T02:59:18.069Z,63.72
2023-03-26T03:01:46.576Z,63.70
2023-03-26T03:04:13.378Z,63.62
2023-03-26T03:06:40.630Z,63.52
2023-03-26T03:09:11.577Z,63.55
2023-03-26T03:11:40.040Z,63.75
2023-03-26T03:14:07.130Z,63.71
2023-03-26T03:16:34.149Z,63.88
2023-03-26T03:19:01.948Z,64.19
2023-03-26T03:21:29.503Z,63.88
2023-03-26T03:24:00.200Z,63.97
2023-03-26T03:26:29.696Z,64.00
2023-03-26T03:28:57.973Z,64.21
2023-03-26T03:31:26.618Z,64.06
2023-03-26T03:33:53.436Z,64.11
2023-03-26T03:36:22.664Z,64.08
2023-03-26T03:38:50.057Z,63.91
2023-03-26T03:41:18.709Z,63.91
2023-03-26T03:43:45.969Z,63.92
2023-03-26T03:46:13.062Z,63.64
2023-03-26T03:48:40.760Z,63.77
2023-03-26T03:51:07.695Z,63.48
2023-03-26T03:53:37.364Z,63.26
2023-03-26T03:56:04.856Z,63.10
2023-03-26T03:58:31.666Z,63.03
2023-03-26T04:01:01.014Z,62.91
2023-03-26T04:03:33.195Z,62.95
2023-03-26T04:06:01.112Z,62.78
2023-03-26T04:08:27.931Z,62.78
2023-03-26T04:10:54.763Z,62.97
2023-03-26T04:13:21.691Z,62.90
2023-03-26T04:15:48.538Z,62.88
2023-03-26T04:18:15.754Z,62.93
2023-03-26T04:20:46.688Z,63.08
2023-03-26T04:23:18.248Z,63.22
2023-03-26T04:25:49.223Z,63.28
2023-03-26T04:28:31.187Z,63.65
2023-03-26T04:31:01.026Z,63.33
2023-03-26T04:33:30.715Z,63.51
2023-03-26T04:36:01.775Z,63.84
2023-03-26T04:38:37.218Z,63.67
2023-03-26T04:41:07.727Z,63.72
2023-03-26T04:43:35.686Z,63.52
2023-03-26T04:46:05.560Z,63.84
2023-03-26T04:48:32.783Z,63.52
2023-03-26T04:50:59.537Z,63.51
2023-03-26T04:53:26.354Z,63.21
2023-03-26T04:56:03.555Z,63.13
2023-03-26T04:58:33.119Z,62.92
2023-03-26T05:01:10.189Z,62.90
2023-03-26T05:03:39.637Z,62.84
2023-03-26T05:06:06.894Z,62.94
2023-03-26T05:08:33.675Z,62.66
2023-03-26T05:11:00.433Z,62.63
2023-03-26T05:13:27.180Z,62.81
2023-03-26T05:15:53.946Z,62.72
2023-03-26T05:18:20.662Z,62.62
2023-03-26T05:20:47.581Z,62.42
2023-03-26T05:23:14.378Z,62.30
2023-03-26T05:25:41.301Z,62.68
2023-03-26T05:28:10.626Z,62.82
2023-03-26T05:30:37.470Z,62.55
2023-03-26T05:33:04.698Z,62.83
2023-03-26T05:35:31.741Z,62.57
2023-03-26T05:37:58.520Z,62.32
2023-03-26T05:40:25.356Z,62.30
2023-03-26T05:42:52.130Z,62.18
2023-03-26T05:45:19.094Z,62.05
2023-03-26T05:47:46.142Z,62.04
2023-03-26T05:50:12.903Z,62.02
2023-03-26T05:52:39.849Z,61.98
2023-03-26T05:55:08.257Z,61.82
2023-03-26T05:57:35.607Z,61.77
2023-03-26T06:00:04.259Z,61.69
2023-03-26T06:02:31.734Z,61.59
2023-03-26T06:04:58.524Z,61.58
2023-03-26T06:07:27.081Z,61.60
2023-03-26T06:09:54.290Z,61.51
2023-03-26T06:12:21.471Z,61.47
2023-03-26T06:14:48.324Z,61.58
2023-03-26T06:17:15.099Z,61.74
2023-03-26T06:19:41.854Z,61.87
2023-03-26T06:22:08.656Z,62.15
2023-03-26T06:24:35.394Z,62.36
2023-03-26T06:27:02.158Z,62.44
2023-03-26T06:29:28.997Z,62.53
2023-03-26T06:31:59.602Z,62.56
2023-03-26T06:34:30.356Z,62.73
2023-03-26T06:36:57.089Z,62.86
2023-03-26T06:39:23.895Z,62.93
2023-03-26T06:41:50.799Z,62.95
2023-03-26T06:44:17.572Z,62.90
2023-03-26T06:46:44.537Z,62.90
2023-03-26T06:49:11.357Z,62.92
2023-03-26T06:51:40.699Z,62.89
2023-03-26T06:54:07.564Z,62.93
2023-03-26T06:56:34.405Z,63.00
2023-03-26T06:59:01.264Z,62.97
2023-03-26T07:01:28.056Z,62.97
2023-03-26T07:03:54.899Z,62.95
2023-03-26T07:06:26.641Z,62.93
2023-03-26T07:08:55.452Z,62.87
2023-03-26T07:11:25.527Z,62.76
2023-03-26T07:13:52.905Z,62.60
2023-03-26T07:16:19.828Z,62.56
2023-03-26T07:18:46.740Z,62.57
2023-03-26T07:21:13.978Z,62.55
2023-03-26T07:23:41.328Z,62.82
2023-03-26T07:26:51.818Z,62.85
2023-03-26T07:29:35.010Z,62.67
2023-03-26T07:32:20.320Z,62.43
2023-03-26T07:34:55.056Z,62.24
2023-03-26T07:37:33.591Z,62.03
2023-03-26T07:40:31.733Z,61.88
2023-03-26T07:43:24.757Z,61.78
2023-03-26T07:45:54.512Z,61.74
2023-03-26T07:48:29.659Z,61.60
2023-03-26T07:50:57.540Z,61.37
2023-03-26T07:53:24.968Z,61.34
2023-03-26T07:56:15.958Z,61.24
2023-03-26T07:59:12.598Z,61.01
2023-03-26T08:01:50.093Z,60.84
2023-03-26T08:04:44.772Z,60.67
2023-03-26T08:07:27.852Z,60.56
2023-03-26T08:10:13.119Z,60.45
2023-03-26T08:12:48.195Z,60.39
2023-03-26T08:15:29.606Z,60.40
2023-03-26T08:18:06.545Z,60.48
2023-03-26T08:20:49.051Z,60.33
2023-03-26T08:23:57.655Z,60.15
2023-03-26T08:26:24.554Z,60.03
2023-03-26T08:28:52.752Z,59.86
2023-03-26T08:31:30.762Z,59.78
2023-03-26T08:33:57.654Z,59.72
2023-03-26T08:36:24.518Z,59.70
2023-03-26T08:38:51.817Z,59.66
2023-03-26T08:41:37.096Z,59.61
2023-03-26T08:44:09.606Z,59.52
2023-03-26T08:47:10.443Z,59.34
2023-03-26T08:50:02.593Z,59.13
2023-03-26T08:52:56.270Z,58.90
2023-03-26T08:55:44.289Z,58.69
2023-03-26T08:58:48.452Z,58.51
2023-03-26T09:01:39.447Z,58.30
2023-03-26T09:04:44.024Z,58.06
2023-03-26T09:07:19.882Z,57.84
2023-03-26T09:09:49.576Z,57.58
2023-03-26T09:12:25.518Z,57.35
2023-03-26T09:15:22.786Z,57.23
2023-03-26T09:18:27.278Z,57.03
2023-03-26T09:21:22.298Z,56.98
2023-03-26T09:24:10.342Z,56.95
2023-03-26T09:27:14.105Z,56.91
2023-03-26T09:29:56.057Z,56.79
2023-03-26T09:32:42.266Z,56.65
2023-03-26T09:35:14.818Z,56.61
2023-03-26T09:37:59.429Z,56.54
2023-03-26T09:40:38.414Z,56.39
2023-03-26T09:43:42.898Z,56.23
2023-03-26T09:47:00.407Z,56.15
2023-03-26T09:49:50.484Z,55.90
2023-03-26T09:52:33.397Z,55.68
2023-03-26T09:55:20.637Z,55.52
2023-03-26T09:58:05.832Z,55.48
2023-03-26T10:00:54.208Z,55.30
2023-03-26T10:03:31.290Z,55.18
2023-03-26T10:06:02.613Z,55.07
2023-03-26T10:09:02.860Z,55.06
2023-03-26T10:11:36.112Z,54.91
2023-03-26T10:14:26.139Z,54.75
2023-03-26T10:17:05.097Z,54.61
2023-03-26T10:19:48.629Z,54.52
2023-03-26T10:23:02.318Z,54.38
2023-03-26T10:25:49.545Z,54.27
2023-03-26T10:28:43.783Z,54.21
2023-03-26T10:31:44.514Z,54.21
2023-03-26T10:34:28.464Z,54.19
2023-03-26T10:37:46.030Z,54.16
2023-03-26T10:40:16.253Z,54.14
2023-03-26T10:43:29.664Z,54.10
2023-03-26T10:46:11.412Z,54.06
2023-03-26T10:48:44.161Z,54.09
2023-03-26T10:51:35.622Z,54.12
2023-03-26T10:54:12.692Z,54.12
2023-03-26T10:56:49.449Z,54.26
2023-03-26T10:59:17.802Z,54.03
2023-03-26T11:02:11.157Z,54.05
2023-03-26T11:04:55.801Z,54.12
2023-03-26T11:07:55.043Z,54.09
2023-03-26T11:11:03.635Z,54.21
2023-03-26T11:13:56.549Z,54.25
2023-03-26T11:16:35.243Z,54.26
2023-03-26T11:19:10.973Z,54.16
2023-03-26T11:21:52.142Z,54.12
2023-03-26T11:24:50.082Z,54.13
2023-03-26T11:27:29.728Z,54.23
2023-03-26T11:30:22.312Z,54.20
2023-03-26T11:32:54.633Z,54.29
2023-03-26T11:35:40.683Z,54.26
2023-03-26T11:38:28.856Z,54.26
2023-03-26T11:40:58.279Z,54.35
2023-03-26T11:43:35.106Z,54.35
2023-03-26T11:46:05.925Z,54.40
2023-03-26T11:48:39.953Z,54.47
2023-03-26T11:51:23.760Z,54.38
2023-03-26T11:53:50.792Z,54.44
2023-03-26T11:56:39.359Z,54.49
2023-03-26T11:59:08.930Z,54.35
2023-03-26T12:02:05.101Z,54.28
2023-03-26T12:04:36.831Z,54.22
2023-03-26T12:07:23.403Z,54.35
2023-03-26T12:09:52.499Z,54.21
2023-03-26T12:12:21.856Z,54.20
2023-03-26T12:14:48.972Z,54.18
2023-03-26T12:17:31.442Z,54.10
2023-03-26T12:19:59.543Z,53.92
2023-03-26T12:22:43.483Z,53.96
2023-03-26T12:25:19.242Z,53.85
2023-03-26T12:28:02.524Z,53.75
2023-03-26T12:30:34.014Z,53.69
2023-03-26T12:33:04.585Z,53.66
2023-03-26T12:35:36.162Z,53.60
2023-03-26T12:38:35.681Z,53.55
2023-03-26T12:44:42.053Z,53.65
2023-03-26T12:44:46.329Z,53.65
2023-03-26T12:47:59.507Z,53.56
2023-03-26T12:50:35.717Z,53.41
2023-03-26T12:53:05.478Z,53.53
2023-03-26T12:55:48.882Z,53.50
2023-03-26T12:58:38.357Z,53.43
2023-03-26T13:01:15.972Z,53.48
2023-03-26T13:03:58.510Z,53.26
2023-03-26T13:06:59.073Z,53.26
2023-03-26T13:09:44.889Z,53.22
2023-03-26T13:12:26.980Z,53.17
2023-03-26T13:15:02.472Z,53.17
2023-03-26T13:17:42.395Z,53.09
2023-03-26T13:20:21.496Z,53.21
2023-03-26T13:23:21.861Z,53.16
2023-03-26T13:26:14.871Z,53.10
2023-03-26T13:29:13.685Z,53.30
2023-03-26T13:32:00.289Z,53.19
2023-03-26T13:34:57.774Z,53.20
2023-03-26T13:37:47.941Z,53.13
2023-03-26T13:40:35.576Z,52.86
2023-03-26T13:43:22.141Z,52.63
2023-03-26T13:46:07.526Z,52.57
2023-03-26T13:49:09.837Z,52.47
2023-03-26T13:51:55.889Z,52.37
2023-03-26T13:54:40.206Z,52.11
2023-03-26T13:57:29.575Z,52.04
2023-03-26T14:00:01.207Z,52.01
2023-03-26T14:03:02.064Z,52.00
2023-03-26T14:05:43.206Z,51.94
2023-03-26T14:08:22.000Z,51.85
2023-03-26T14:10:59.525Z,51.79
2023-03-26T14:13:33.514Z,51.37
2023-03-26T14:16:26.082Z,51.31
2023-03-26T14:19:15.209Z,51.19
2023-03-26T14:21:52.569Z,51.22
2023-03-26T14:24:19.638Z,51.18
2023-03-26T14:27:24.792Z,51.16
2023-03-26T14:30:23.114Z,51.21
2023-03-26T14:33:27.920Z,51.16
2023-03-26T14:36:01.377Z,51.31
2023-03-26T14:38:46.776Z,51.28
2023-03-26T14:41:24.536Z,51.14
2023-03-26T14:44:10.163Z,51.31
2023-03-26T14:46:57.718Z,51.29
2023-03-26T14:49:54.941Z,51.28
2023-03-26T14:52:40.065Z,51.37
2023-03-26T14:55:17.489Z,51.47
2023-03-26T14:58:09.401Z,51.57
2023-03-26T15:01:07.800Z,51.62
2023-03-26T15:04:00.462Z,51.61
2023-03-26T15:06:51.665Z,51.60
2023-03-26T15:09:49.149Z,51.56
2023-03-26T15:12:58.181Z,51.62
2023-03-26T15:15:58.985Z,51.69
2023-03-26T15:18:38.020Z,51.43
2023-03-26T15:21:30.261Z,51.56
2023-03-26T15:24:25.557Z,51.51
2023-03-26T15:27:30.689Z,51.63
2023-03-26T15:30:10.748Z,51.59
2023-03-26T15:33:17.119Z,51.69
2023-03-26T15:36:09.698Z,51.60
2023-03-26T15:38:48.520Z,51.67
2023-03-26T15:41:40.106Z,51.53
2023-03-26T15:44:23.128Z,51.71
2023-03-26T15:47:11.822Z,51.84
2023-03-26T15:49:50.386Z,51.89
2023-03-26T15:52:25.612Z,51.97
2023-03-26T15:55:17.161Z,51.92
2023-03-26T15:58:27.573Z,51.88
2023-03-26T16:01:07.899Z,51.92
2023-03-26T16:03:51.772Z,51.96
2023-03-26T16:06:27.924Z,52.13
2023-03-26T16:09:13.325Z,52.16
2023-03-26T16:11:44.277Z,52.18
2023-03-26T16:14:23.550Z,52.20
2023-03-26T16:16:59.393Z,52.09
2023-03-26T16:19:36.419Z,52.25
2023-03-26T16:22:16.586Z,52.24
2023-03-26T16:24:51.416Z,52.37
2023-03-26T16:27:45.682Z,52.44
2023-03-26T16:30:27.089Z,52.56
2023-03-26T16:33:22.353Z,52.64
2023-03-26T16:36:18.635Z,52.63
2023-03-26T16:38:50.573Z,52.44
2023-03-26T16:41:27.967Z,52.74
2023-03-26T16:44:04.807Z,52.88
2023-03-26T16:46:46.243Z,52.98
2023-03-26T16:49:25.390Z,53.03
2023-03-26T16:52:22.209Z,53.15
2023-03-26T16:55:10.881Z,53.27
2023-03-26T16:58:04.053Z,53.37
2023-03-26T17:00:41.678Z,53.44
2023-03-26T17:03:28.049Z,53.51
2023-03-26T17:06:02.608Z,53.64
2023-03-26T17:08:47.636Z,53.71
2023-03-26T17:11:24.586Z,53.79
2023-03-26T17:14:48.900Z,53.85
2023-03-26T17:17:24.378Z,53.95
2023-03-26T17:20:33.535Z,54.08
2023-03-26T17:23:34.855Z,54.17
2023-03-26T17:26:11.418Z,54.23
2023-03-26T17:28:56.483Z,54.40
2023-03-26T17:31:59.092Z,54.49
2023-03-26T17:34:38.845Z,54.52
2023-03-26T17:37:12.186Z,54.65
2023-03-26T17:39:40.020Z,54.78
2023-03-26T17:42:16.894Z,54.83
2023-03-26T17:44:51.358Z,54.89
2023-03-26T17:47:26.639Z,55.04
2023-03-26T17:50:01.454Z,55.13
2023-03-26T17:52:50.032Z,55.21
2023-03-26T17:55:21.818Z,55.21
2023-03-26T17:57:57.261Z,55.24
2023-03-26T18:00:32.109Z,55.29
2023-03-26T18:03:05.617Z,55.39
2023-03-26T18:05:39.652Z,55.38
2023-03-26T18:08:42.390Z,55.46
2023-03-26T18:11:25.684Z,55.52
2023-03-26T18:14:25.465Z,55.92
2023-03-26T18:16:57.100Z,56.30
2023-03-26T18:19:29.938Z,56.27
2023-03-26T18:22:04.030Z,56.13
2023-03-26T18:24:38.452Z,56.14
2023-03-26T18:27:12.639Z,55.95
2023-03-26T18:30:02.436Z,56.00
2023-03-26T18:32:34.061Z,55.98
2023-03-26T18:35:14.958Z,56.14
2023-03-26T18:37:46.486Z,56.70
2023-03-26T18:40:17.364Z,56.52
2023-03-26T18:42:55.310Z,56.63
2023-03-26T18:45:31.724Z,56.80
2023-03-26T18:48:05.323Z,57.01
2023-03-26T18:50:39.953Z,57.00
2023-03-26T18:53:19.165Z,56.87
2023-03-26T18:55:48.336Z,56.81
2023-03-26T18:58:30.922Z,56.75
2023-03-26T19:01:02.715Z,56.75
2023-03-26T19:03:36.130Z,56.72
2023-03-26T19:06:09.193Z,56.79
2023-03-26T19:08:41.806Z,56.77
2023-03-26T19:11:12.110Z,56.69
2023-03-26T19:13:43.875Z,56.71
2023-03-26T19:16:34.642Z,56.75
2023-03-26T19:19:07.188Z,56.85
2023-03-26T19:21:39.869Z,56.98
2023-03-26T19:24:10.043Z,57.18
2023-03-26T19:26:38.561Z,57.30
2023-03-26T19:29:06.958Z,57.74
2023-03-26T19:31:40.595Z,57.73
2023-03-26T19:34:21.012Z,57.86
2023-03-26T19:37:03.650Z,57.82
2023-03-26T19:39:46.949Z,57.98
2023-03-26T19:42:19.181Z,58.21
2023-03-26T19:44:47.718Z,58.26
2023-03-26T19:47:35.365Z,58.39
2023-03-26T19:50:33.540Z,58.44
2023-03-26T19:53:30.589Z,58.62
2023-03-26T19:56:05.235Z,58.92
2023-03-26T19:58:36.333Z,59.16
2023-03-26T20:01:07.609Z,59.59
2023-03-26T20:03:42.480Z,59.59
2023-03-26T20:06:13.518Z,59.83
2023-03-26T20:08:44.381Z,59.68
2023-03-26T20:11:19.273Z,59.44
2023-03-26T20:13:47.928Z,59.29
2023-03-26T20:16:29.260Z,59.24
2023-03-26T20:18:57.954Z,59.32
2023-03-26T20:21:26.975Z,59.54
2023-03-26T20:23:55.495Z,59.64
2023-03-26T20:26:29.358Z,59.69
2023-03-26T20:28:57.737Z,59.82
2023-03-26T20:31:27.360Z,59.78
2023-03-26T20:33:55.776Z,59.84
2023-03-26T20:36:33.747Z,60.03
2023-03-26T20:39:08.408Z,60.24
2023-03-26T20:41:39.948Z,60.24
2023-03-26T20:44:15.801Z,60.29
2023-03-26T20:46:44.355Z,60.28
2023-03-26T20:49:12.667Z,60.32
2023-03-26T20:51:42.050Z,60.52
2023-03-26T20:54:17.887Z,60.36
2023-03-26T20:56:46.034Z,60.60
2023-03-26T20:59:18.126Z,60.77
2023-03-26T21:01:48.859Z,61.20
2023-03-26T21:04:17.162Z,61.62
2023-03-26T21:06:44.448Z,62.49
2023-03-26T21:09:24.110Z,63.10
2023-03-26T21:11:53.831Z,62.85
2023-03-26T21:14:41.158Z,62.93
2023-03-26T21:17:27.209Z,62.63
2023-03-26T21:19:54.806Z,62.88
2023-03-26T21:22:36.201Z,62.98
2023-03-26T21:25:21.385Z,62.61
2023-03-26T21:28:23.998Z,62.66
2023-03-26T21:30:53.557Z,62.78
2023-03-26T21:33:22.093Z,62.76
2023-03-26T21:35:53.470Z,62.88
2023-03-26T21:38:24.711Z,62.70
2023-03-26T21:40:58.693Z,62.55
2023-03-26T21:43:26.156Z,62.38
2023-03-26T21:45:57.434Z,62.05
2023-03-26T21:48:24.832Z,62.08
2023-03-26T21:50:51.948Z,61.82
2023-03-26T21:53:18.924Z,62.27
2023-03-26T21:56:18.027Z,62.82
2023-03-26T21:58:51.291Z,62.65
2023-03-26T22:01:53.541Z,62.60
2023-03-26T22:04:29.571Z,62.36
2023-03-26T22:07:11.289Z,62.42
2023-03-26T22:09:38.497Z,62.46
2023-03-26T22:12:05.705Z,62.30
2023-03-26T22:14:33.679Z,62.46
2023-03-26T22:17:00.432Z,62.53
2023-03-26T22:19:28.572Z,62.30
2023-03-26T22:22:00.233Z,62.39
2023-03-26T22:24:27.203Z,62.35
2023-03-26T22:26:54.013Z,62.48
2023-03-26T22:29:20.950Z,62.56
2023-03-26T22:31:47.835Z,62.49
2023-03-26T22:34:14.655Z,62.63
2023-03-26T22:36:41.405Z,63.16
2023-03-26T22:39:08.138Z,62.96
2023-03-26T22:41:34.852Z,63.23
2023-03-26T22:44:12.922Z,63.13
2023-03-26T22:46:49.304Z,63.04
2023-03-26T22:49:16.881Z,63.44
2023-03-26T22:51:43.811Z,63.29
2023-03-26T22:54:10.649Z,63.41
2023-03-26T22:56:37.742Z,63.64
2023-03-26T22:59:04.822Z,63.40
2023-03-26T23:01:31.856Z,63.41
2023-03-26T23:03:58.683Z,63.42
2023-03-26T23:06:25.694Z,63.40
2023-03-26T23:08:52.597Z,63.26
2023-03-26T23:11:21.984Z,63.36
2023-03-26T23:13:49.367Z,63.32
2023-03-26T23:16:17.528Z,63.26
2023-03-26T23:18:44.865Z,63.21
2023-03-26T23:21:18.392Z,63.22
2023-03-26T23:23:46.299Z,63.33
2023-03-26T23:26:14.847Z,63.40
2023-03-26T23:28:42.095Z,63.31
2023-03-26T23:31:10.465Z,63.40
2023-03-26T23:33:45.624Z,63.38
2023-03-26T23:36:14.853Z,63.27
2023-03-26T23:38:43.838Z,63.23
2023-03-26T23:41:15.156Z,63.28
2023-03-26T23:43:54.216Z,63.40
2023-03-26T23:46:23.677Z,63.34
2023-03-26T23:48:51.640Z,63.30
2023-03-26T23:51:24.154Z,63.47
2023-03-26T23:53:52.626Z,63.41
2023-03-26T23:56:19.467Z,63.74
2023-03-26T23:58:46.201Z,63.95
